sensor_id;sensor_type;location;lat;lon;timestamp;P1;durP1;ratioP1;P2;durP2;ratioP2
58238;SDS011;44037;55.638;37.356;2023-07-29T00:00:12;10.40;;;7.32;;
58238;SDS011;44037;55.638;37.356;2023-07-29T00:02:39;11.45;;;7.15;;
58238;SDS011;44037;55.638;37.356;2023-07-29T00:05:07;9.02;;;7.38;;
58238;SDS011;44037;55.638;37.356;2023-07-29T00:07:34;11.65;;;7.00;;
58238;SDS011;44037;55.638;37.356;2023-07-29T00:10:02;11.98;;;7.50;;
58238;SDS011;44037;55.638;37.356;2023-07-29T00:12:32;10.43;;;6.70;;
58238;SDS011;44037;55.638;37.356;2023-07-29T00:14:59;10.32;;;6.72;;
58238;SDS011;44037;55.638;37.356;2023-07-29T00:17:26;9.35;;;7.43;;
58238;SDS011;44037;55.638;37.356;2023-07-29T00:19:53;10.32;;;7.57;;
58238;SDS011;44037;55.638;37.356;2023-07-29T00:22:20;10.70;;;7.93;;
58238;SDS011;44037;55.638;37.356;2023-07-29T00:24:51;11.05;;;7.25;;
58238;SDS011;44037;55.638;37.356;2023-07-29T00:27:20;8.70;;;7.15;;
58238;SDS011;44037;55.638;37.356;2023-07-29T00:29:49;9.93;;;7.53;;
58238;SDS011;44037;55.638;37.356;2023-07-29T00:32:16;9.68;;;7.30;;
58238;SDS011;44037;55.638;37.356;2023-07-29T00:34:43;13.27;;;7.65;;
58238;SDS011;44037;55.638;37.356;2023-07-29T00:37:10;11.85;;;8.00;;
58238;SDS011;44037;55.638;37.356;2023-07-29T00:39:37;12.70;;;8.05;;
58238;SDS011;44037;55.638;37.356;2023-07-29T00:42:05;11.40;;;7.00;;
58238;SDS011;44037;55.638;37.356;2023-07-29T00:44:32;22.48;;;8.07;;
58238;SDS011;44037;55.638;37.356;2023-07-29T00:47:01;9.77;;;7.57;;
58238;SDS011;44037;55.638;37.356;2023-07-29T00:49:31;8.95;;;7.72;;
58238;SDS011;44037;55.638;37.356;2023-07-29T00:51:59;9.75;;;8.32;;
58238;SDS011;44037;55.638;37.356;2023-07-29T00:54:26;11.93;;;8.38;;
58238;SDS011;44037;55.638;37.356;2023-07-29T00:56:53;10.05;;;8.07;;
58238;SDS011;44037;55.638;37.356;2023-07-29T00:59:20;11.73;;;8.18;;
58238;SDS011;44037;55.638;37.356;2023-07-29T01:01:48;9.93;;;8.38;;
58238;SDS011;44037;55.638;37.356;2023-07-29T01:04:16;10.98;;;8.55;;
58238;SDS011;44037;55.638;37.356;2023-07-29T01:06:46;10.95;;;8.02;;
58238;SDS011;44037;55.638;37.356;2023-07-29T01:09:20;12.90;;;8.13;;
58238;SDS011;44037;55.638;37.356;2023-07-29T01:11:53;12.95;;;9.15;;
58238;SDS011;44037;55.638;37.356;2023-07-29T01:14:29;12.77;;;8.90;;
58238;SDS011;44037;55.638;37.356;2023-07-29T01:17:07;10.77;;;9.00;;
58238;SDS011;44037;55.638;37.356;2023-07-29T01:19:47;14.07;;;8.95;;
58238;SDS011;44037;55.638;37.356;2023-07-29T01:22:22;17.42;;;9.38;;
58238;SDS011;44037;55.638;37.356;2023-07-29T01:24:52;12.05;;;9.07;;
58238;SDS011;44037;55.638;37.356;2023-07-29T01:27:19;13.35;;;9.40;;
58238;SDS011;44037;55.638;37.356;2023-07-29T01:29:46;12.00;;;8.73;;
58238;SDS011;44037;55.638;37.356;2023-07-29T01:32:15;16.17;;;8.95;;
58238;SDS011;44037;55.638;37.356;2023-07-29T01:34:47;13.25;;;9.65;;
58238;SDS011;44037;55.638;37.356;2023-07-29T01:37:26;14.13;;;9.23;;
58238;SDS011;44037;55.638;37.356;2023-07-29T01:39:59;18.42;;;9.77;;
58238;SDS011;44037;55.638;37.356;2023-07-29T01:42:29;15.43;;;9.95;;
58238;SDS011;44037;55.638;37.356;2023-07-29T01:44:57;14.65;;;9.98;;
58238;SDS011;44037;55.638;37.356;2023-07-29T01:47:24;10.45;;;9.23;;
58238;SDS011;44037;55.638;37.356;2023-07-29T01:49:52;13.73;;;9.60;;
58238;SDS011;44037;55.638;37.356;2023-07-29T01:52:19;12.55;;;9.65;;
58238;SDS011;44037;55.638;37.356;2023-07-29T01:54:46;23.83;;;10.85;;
58238;SDS011;44037;55.638;37.356;2023-07-29T01:57:14;16.33;;;10.95;;
58238;SDS011;44037;55.638;37.356;2023-07-29T01:59:41;14.48;;;9.77;;
58238;SDS011;44037;55.638;37.356;2023-07-29T02:02:09;14.32;;;10.10;;
58238;SDS011;44037;55.638;37.356;2023-07-29T02:04:36;11.52;;;9.07;;
58238;SDS011;44037;55.638;37.356;2023-07-29T02:07:04;14.70;;;10.05;;
58238;SDS011;44037;55.638;37.356;2023-07-29T02:09:31;11.63;;;9.52;;
58238;SDS011;44037;55.638;37.356;2023-07-29T02:11:58;14.90;;;10.07;;
58238;SDS011;44037;55.638;37.356;2023-07-29T02:14:27;14.48;;;9.68;;
58238;SDS011;44037;55.638;37.356;2023-07-29T02:16:54;11.45;;;9.57;;
58238;SDS011;44037;55.638;37.356;2023-07-29T02:19:41;12.00;;;8.45;;
58238;SDS011;44037;55.638;37.356;2023-07-29T02:22:08;14.27;;;9.38;;
58238;SDS011;44037;55.638;37.356;2023-07-29T02:24:36;14.75;;;10.13;;
58238;SDS011;44037;55.638;37.356;2023-07-29T02:27:03;15.05;;;10.35;;
58238;SDS011;44037;55.638;37.356;2023-07-29T02:29:32;12.57;;;9.98;;
58238;SDS011;44037;55.638;37.356;2023-07-29T02:31:59;16.83;;;10.40;;
58238;SDS011;44037;55.638;37.356;2023-07-29T02:34:26;13.25;;;9.35;;
58238;SDS011;44037;55.638;37.356;2023-07-29T02:36:53;15.27;;;10.00;;
58238;SDS011;44037;55.638;37.356;2023-07-29T02:39:20;16.52;;;10.85;;
58238;SDS011;44037;55.638;37.356;2023-07-29T02:41:48;15.32;;;10.50;;
58238;SDS011;44037;55.638;37.356;2023-07-29T02:44:16;17.05;;;9.77;;
58238;SDS011;44037;55.638;37.356;2023-07-29T02:46:44;15.43;;;10.60;;
58238;SDS011;44037;55.638;37.356;2023-07-29T02:49:11;14.30;;;10.43;;
58238;SDS011;44037;55.638;37.356;2023-07-29T02:51:38;14.32;;;10.35;;
58238;SDS011;44037;55.638;37.356;2023-07-29T02:54:06;16.38;;;11.18;;
58238;SDS011;44037;55.638;37.356;2023-07-29T02:56:33;16.75;;;12.05;;
58238;SDS011;44037;55.638;37.356;2023-07-29T02:59:00;17.50;;;13.45;;
58238;SDS011;44037;55.638;37.356;2023-07-29T03:01:27;14.90;;;11.40;;
58238;SDS011;44037;55.638;37.356;2023-07-29T03:03:56;22.20;;;12.20;;
58238;SDS011;44037;55.638;37.356;2023-07-29T03:06:23;16.45;;;10.93;;
58238;SDS011;44037;55.638;37.356;2023-07-29T03:08:51;15.95;;;11.15;;
58238;SDS011;44037;55.638;37.356;2023-07-29T03:11:36;17.35;;;11.60;;
58238;SDS011;44037;55.638;37.356;2023-07-29T03:14:06;13.57;;;10.40;;
58238;SDS011;44037;55.638;37.356;2023-07-29T03:16:33;17.95;;;11.48;;
58238;SDS011;44037;55.638;37.356;2023-07-29T03:19:02;17.70;;;12.32;;
58238;SDS011;44037;55.638;37.356;2023-07-29T03:21:31;19.00;;;12.18;;
58238;SDS011;44037;55.638;37.356;2023-07-29T03:23:58;25.45;;;17.08;;
58238;SDS011;44037;55.638;37.356;2023-07-29T03:26:26;15.82;;;10.75;;
58238;SDS011;44037;55.638;37.356;2023-07-29T03:28:58;14.70;;;10.75;;
58238;SDS011;44037;55.638;37.356;2023-07-29T03:31:25;13.38;;;10.02;;
58238;SDS011;44037;55.638;37.356;2023-07-29T03:33:53;18.08;;;10.35;;
58238;SDS011;44037;55.638;37.356;2023-07-29T03:36:22;13.13;;;9.82;;
58238;SDS011;44037;55.638;37.356;2023-07-29T03:38:50;14.85;;;10.45;;
58238;SDS011;44037;55.638;37.356;2023-07-29T03:41:18;15.75;;;11.32;;
58238;SDS011;44037;55.638;37.356;2023-07-29T03:43:45;14.70;;;10.43;;
58238;SDS011;44037;55.638;37.356;2023-07-29T03:46:12;12.27;;;10.23;;
58238;SDS011;44037;55.638;37.356;2023-07-29T03:48:43;17.50;;;11.15;;
58238;SDS011;44037;55.638;37.356;2023-07-29T03:51:12;14.85;;;10.48;;
58238;SDS011;44037;55.638;37.356;2023-07-29T03:53:40;17.20;;;10.43;;
58238;SDS011;44037;55.638;37.356;2023-07-29T03:56:08;13.35;;;10.70;;
58238;SDS011;44037;55.638;37.356;2023-07-29T03:58:35;13.25;;;10.35;;
58238;SDS011;44037;55.638;37.356;2023-07-29T04:01:02;14.90;;;11.02;;
58238;SDS011;44037;55.638;37.356;2023-07-29T04:03:29;16.45;;;11.40;;
58238;SDS011;44037;55.638;37.356;2023-07-29T04:05:57;13.07;;;10.20;;
58238;SDS011;44037;55.638;37.356;2023-07-29T04:08:24;13.70;;;10.02;;
58238;SDS011;44037;55.638;37.356;2023-07-29T04:10:53;14.18;;;11.27;;
58238;SDS011;44037;55.638;37.356;2023-07-29T04:13:20;13.15;;;10.40;;
58238;SDS011;44037;55.638;37.356;2023-07-29T04:15:47;14.25;;;10.70;;
58238;SDS011;44037;55.638;37.356;2023-07-29T04:18:14;15.07;;;9.85;;
58238;SDS011;44037;55.638;37.356;2023-07-29T04:20:41;14.25;;;10.23;;
58238;SDS011;44037;55.638;37.356;2023-07-29T04:23:08;14.80;;;11.07;;
58238;SDS011;44037;55.638;37.356;2023-07-29T04:25:36;16.42;;;10.95;;
58238;SDS011;44037;55.638;37.356;2023-07-29T04:28:04;17.92;;;10.43;;
58238;SDS011;44037;55.638;37.356;2023-07-29T04:30:31;13.55;;;10.45;;
58238;SDS011;44037;55.638;37.356;2023-07-29T04:32:59;15.63;;;11.13;;
58238;SDS011;44037;55.638;37.356;2023-07-29T04:35:26;14.30;;;10.55;;
58238;SDS011;44037;55.638;37.356;2023-07-29T04:37:53;12.73;;;10.32;;
58238;SDS011;44037;55.638;37.356;2023-07-29T04:40:20;16.90;;;11.30;;
58238;SDS011;44037;55.638;37.356;2023-07-29T04:42:48;13.55;;;10.18;;
58238;SDS011;44037;55.638;37.356;2023-07-29T04:45:16;17.80;;;10.23;;
58238;SDS011;44037;55.638;37.356;2023-07-29T04:47:43;15.90;;;10.82;;
58238;SDS011;44037;55.638;37.356;2023-07-29T04:50:10;13.85;;;10.05;;
58238;SDS011;44037;55.638;37.356;2023-07-29T04:52:37;14.27;;;9.85;;
58238;SDS011;44037;55.638;37.356;2023-07-29T04:55:05;14.52;;;9.85;;
58238;SDS011;44037;55.638;37.356;2023-07-29T04:57:32;11.60;;;9.55;;
58238;SDS011;44037;55.638;37.356;2023-07-29T04:59:59;15.48;;;10.40;;
58238;SDS011;44037;55.638;37.356;2023-07-29T05:02:29;10.13;;;9.07;;
58238;SDS011;44037;55.638;37.356;2023-07-29T05:04:56;16.45;;;10.43;;
58238;SDS011;44037;55.638;37.356;2023-07-29T05:07:23;13.38;;;8.95;;
58238;SDS011;44037;55.638;37.356;2023-07-29T05:09:50;12.57;;;9.75;;
58238;SDS011;44037;55.638;37.356;2023-07-29T05:12:17;14.05;;;9.95;;
58238;SDS011;44037;55.638;37.356;2023-07-29T05:14:44;11.63;;;9.85;;
58238;SDS011;44037;55.638;37.356;2023-07-29T05:17:11;11.02;;;9.35;;
58238;SDS011;44037;55.638;37.356;2023-07-29T05:19:40;12.00;;;9.35;;
58238;SDS011;44037;55.638;37.356;2023-07-29T05:22:07;15.18;;;10.43;;
58238;SDS011;44037;55.638;37.356;2023-07-29T05:24:35;13.13;;;9.70;;
58238;SDS011;44037;55.638;37.356;2023-07-29T05:27:02;15.52;;;10.50;;
58238;SDS011;44037;55.638;37.356;2023-07-29T05:29:29;11.73;;;9.32;;
58238;SDS011;44037;55.638;37.356;2023-07-29T05:31:57;12.13;;;9.88;;
58238;SDS011;44037;55.638;37.356;2023-07-29T05:34:24;14.45;;;9.27;;
58238;SDS011;44037;55.638;37.356;2023-07-29T05:36:52;12.40;;;8.98;;
58238;SDS011;44037;55.638;37.356;2023-07-29T05:39:19;12.90;;;9.75;;
58238;SDS011;44037;55.638;37.356;2023-07-29T05:41:46;13.50;;;10.80;;
58238;SDS011;44037;55.638;37.356;2023-07-29T05:44:13;14.15;;;9.40;;
58238;SDS011;44037;55.638;37.356;2023-07-29T05:46:41;12.02;;;9.15;;
58238;SDS011;44037;55.638;37.356;2023-07-29T05:49:08;12.73;;;8.52;;
58238;SDS011;44037;55.638;37.356;2023-07-29T05:51:35;13.10;;;9.80;;
58238;SDS011;44037;55.638;37.356;2023-07-29T05:54:03;10.70;;;8.88;;
58238;SDS011;44037;55.638;37.356;2023-07-29T05:56:30;12.55;;;8.57;;
58238;SDS011;44037;55.638;37.356;2023-07-29T05:58:57;11.73;;;8.93;;
58238;SDS011;44037;55.638;37.356;2023-07-29T06:01:25;11.95;;;9.00;;
58238;SDS011;44037;55.638;37.356;2023-07-29T06:03:52;11.27;;;8.90;;
58238;SDS011;44037;55.638;37.356;2023-07-29T06:06:20;12.13;;;8.63;;
58238;SDS011;44037;55.638;37.356;2023-07-29T06:08:48;12.07;;;8.65;;
58238;SDS011;44037;55.638;37.356;2023-07-29T06:11:18;10.18;;;8.32;;
58238;SDS011;44037;55.638;37.356;2023-07-29T06:13:45;11.45;;;8.95;;
58238;SDS011;44037;55.638;37.356;2023-07-29T06:16:13;12.68;;;8.57;;
58238;SDS011;44037;55.638;37.356;2023-07-29T06:18:40;11.90;;;8.93;;
58238;SDS011;44037;55.638;37.356;2023-07-29T06:21:07;14.63;;;9.40;;
58238;SDS011;44037;55.638;37.356;2023-07-29T06:23:37;14.77;;;9.65;;
58238;SDS011;44037;55.638;37.356;2023-07-29T06:26:04;12.75;;;9.90;;
58238;SDS011;44037;55.638;37.356;2023-07-29T06:28:33;12.65;;;10.43;;
58238;SDS011;44037;55.638;37.356;2023-07-29T06:31:00;17.77;;;9.90;;
58238;SDS011;44037;55.638;37.356;2023-07-29T06:33:27;18.63;;;10.57;;
58238;SDS011;44037;55.638;37.356;2023-07-29T06:35:55;11.23;;;9.43;;
58238;SDS011;44037;55.638;37.356;2023-07-29T06:38:22;13.75;;;9.13;;
58238;SDS011;44037;55.638;37.356;2023-07-29T06:40:49;20.23;;;12.20;;
58238;SDS011;44037;55.638;37.356;2023-07-29T06:43:16;16.98;;;11.05;;
58238;SDS011;44037;55.638;37.356;2023-07-29T06:45:45;14.02;;;10.80;;
58238;SDS011;44037;55.638;37.356;2023-07-29T06:48:12;14.38;;;10.77;;
58238;SDS011;44037;55.638;37.356;2023-07-29T06:50:39;16.02;;;10.30;;
58238;SDS011;44037;55.638;37.356;2023-07-29T06:53:06;12.43;;;10.55;;
58238;SDS011;44037;55.638;37.356;2023-07-29T06:55:33;16.83;;;9.93;;
58238;SDS011;44037;55.638;37.356;2023-07-29T06:58:00;14.02;;;10.10;;
58238;SDS011;44037;55.638;37.356;2023-07-29T07:00:27;13.05;;;9.85;;
58238;SDS011;44037;55.638;37.356;2023-07-29T07:02:56;15.00;;;9.75;;
58238;SDS011;44037;55.638;37.356;2023-07-29T07:05:23;11.90;;;8.98;;
58238;SDS011;44037;55.638;37.356;2023-07-29T07:07:50;13.10;;;9.40;;
58238;SDS011;44037;55.638;37.356;2023-07-29T07:10:17;13.77;;;9.50;;
58238;SDS011;44037;55.638;37.356;2023-07-29T07:12:45;12.27;;;9.40;;
58238;SDS011;44037;55.638;37.356;2023-07-29T07:15:12;12.65;;;9.52;;
58238;SDS011;44037;55.638;37.356;2023-07-29T07:17:39;11.60;;;9.73;;
58238;SDS011;44037;55.638;37.356;2023-07-29T07:20:08;11.23;;;8.98;;
58238;SDS011;44037;55.638;37.356;2023-07-29T07:22:36;12.15;;;9.30;;
58238;SDS011;44037;55.638;37.356;2023-07-29T07:25:05;10.88;;;8.73;;
58238;SDS011;44037;55.638;37.356;2023-07-29T07:27:32;13.23;;;9.07;;
58238;SDS011;44037;55.638;37.356;2023-07-29T07:29:59;12.60;;;9.82;;
58238;SDS011;44037;55.638;37.356;2023-07-29T07:32:29;13.60;;;9.25;;
58238;SDS011;44037;55.638;37.356;2023-07-29T07:34:56;15.90;;;9.55;;
58238;SDS011;44037;55.638;37.356;2023-07-29T07:37:25;14.13;;;9.25;;
58238;SDS011;44037;55.638;37.356;2023-07-29T07:39:52;9.90;;;7.85;;
58238;SDS011;44037;55.638;37.356;2023-07-29T07:42:19;12.90;;;9.00;;
58238;SDS011;44037;55.638;37.356;2023-07-29T07:44:46;11.02;;;8.40;;
58238;SDS011;44037;55.638;37.356;2023-07-29T07:47:13;10.70;;;8.20;;
58238;SDS011;44037;55.638;37.356;2023-07-29T07:49:40;11.15;;;8.50;;
58238;SDS011;44037;55.638;37.356;2023-07-29T07:52:07;11.57;;;7.47;;
58238;SDS011;44037;55.638;37.356;2023-07-29T07:54:36;12.30;;;8.90;;
58238;SDS011;44037;55.638;37.356;2023-07-29T07:57:03;11.77;;;8.60;;
58238;SDS011;44037;55.638;37.356;2023-07-29T07:59:30;13.00;;;8.88;;
58238;SDS011;44037;55.638;37.356;2023-07-29T08:01:57;10.75;;;8.40;;
58238;SDS011;44037;55.638;37.356;2023-07-29T08:04:25;8.80;;;7.88;;
58238;SDS011;44037;55.638;37.356;2023-07-29T08:06:52;13.73;;;8.32;;
58238;SDS011;44037;55.638;37.356;2023-07-29T08:09:19;9.07;;;8.13;;
58238;SDS011;44037;55.638;37.356;2023-07-29T08:11:47;9.82;;;8.10;;
58238;SDS011;44037;55.638;37.356;2023-07-29T08:14:14;10.27;;;7.47;;
58238;SDS011;44037;55.638;37.356;2023-07-29T08:16:42;9.52;;;7.18;;
58238;SDS011;44037;55.638;37.356;2023-07-29T08:19:09;10.82;;;7.20;;
58238;SDS011;44037;55.638;37.356;2023-07-29T08:21:36;9.98;;;7.63;;
58238;SDS011;44037;55.638;37.356;2023-07-29T08:24:03;10.38;;;7.65;;
58238;SDS011;44037;55.638;37.356;2023-07-29T08:26:32;9.55;;;7.90;;
58238;SDS011;44037;55.638;37.356;2023-07-29T08:29:00;8.55;;;7.47;;
58238;SDS011;44037;55.638;37.356;2023-07-29T08:31:28;8.18;;;6.45;;
58238;SDS011;44037;55.638;37.356;2023-07-29T08:33:56;9.82;;;7.35;;
58238;SDS011;44037;55.638;37.356;2023-07-29T08:36:23;8.13;;;7.25;;
58238;SDS011;44037;55.638;37.356;2023-07-29T08:38:50;10.02;;;7.28;;
58238;SDS011;44037;55.638;37.356;2023-07-29T08:41:19;9.52;;;6.80;;
58238;SDS011;44037;55.638;37.356;2023-07-29T08:43:52;11.35;;;7.28;;
58238;SDS011;44037;55.638;37.356;2023-07-29T08:46:26;9.90;;;7.45;;
58238;SDS011;44037;55.638;37.356;2023-07-29T08:48:54;11.98;;;7.30;;
58238;SDS011;44037;55.638;37.356;2023-07-29T08:51:22;9.10;;;6.57;;
58238;SDS011;44037;55.638;37.356;2023-07-29T08:53:51;8.73;;;7.30;;
58238;SDS011;44037;55.638;37.356;2023-07-29T08:56:18;9.63;;;7.13;;
58238;SDS011;44037;55.638;37.356;2023-07-29T08:58:45;12.10;;;7.32;;
58238;SDS011;44037;55.638;37.356;2023-07-29T09:01:13;11.07;;;7.22;;
58238;SDS011;44037;55.638;37.356;2023-07-29T09:03:43;13.50;;;8.95;;
58238;SDS011;44037;55.638;37.356;2023-07-29T09:06:10;9.68;;;8.23;;
58238;SDS011;44037;55.638;37.356;2023-07-29T09:08:38;12.98;;;7.15;;
58238;SDS011;44037;55.638;37.356;2023-07-29T09:11:06;9.00;;;7.78;;
58238;SDS011;44037;55.638;37.356;2023-07-29T09:13:33;10.57;;;7.57;;
58238;SDS011;44037;55.638;37.356;2023-07-29T09:16:01;13.38;;;8.23;;
58238;SDS011;44037;55.638;37.356;2023-07-29T09:18:28;10.20;;;7.95;;
58238;SDS011;44037;55.638;37.356;2023-07-29T09:20:58;11.95;;;7.63;;
58238;SDS011;44037;55.638;37.356;2023-07-29T09:23:26;9.88;;;7.22;;
58238;SDS011;44037;55.638;37.356;2023-07-29T09:26:00;12.50;;;8.40;;
58238;SDS011;44037;55.638;37.356;2023-07-29T09:28:28;11.32;;;8.48;;
58238;SDS011;44037;55.638;37.356;2023-07-29T09:30:59;11.68;;;9.63;;
58238;SDS011;44037;55.638;37.356;2023-07-29T09:33:27;10.10;;;8.43;;
58238;SDS011;44037;55.638;37.356;2023-07-29T09:35:54;9.40;;;8.43;;
58238;SDS011;44037;55.638;37.356;2023-07-29T09:38:26;13.85;;;9.05;;
58238;SDS011;44037;55.638;37.356;2023-07-29T09:40:54;15.10;;;8.85;;
58238;SDS011;44037;55.638;37.356;2023-07-29T09:43:25;11.20;;;8.57;;
58238;SDS011;44037;55.638;37.356;2023-07-29T09:45:55;12.25;;;8.55;;
58238;SDS011;44037;55.638;37.356;2023-07-29T09:48:26;9.93;;;7.65;;
58238;SDS011;44037;55.638;37.356;2023-07-29T09:50:54;18.13;;;10.30;;
58238;SDS011;44037;55.638;37.356;2023-07-29T09:53:22;10.68;;;8.43;;
58238;SDS011;44037;55.638;37.356;2023-07-29T09:55:51;10.80;;;7.85;;
58238;SDS011;44037;55.638;37.356;2023-07-29T09:58:25;12.25;;;8.50;;
58238;SDS011;44037;55.638;37.356;2023-07-29T10:00:53;10.30;;;8.07;;
58238;SDS011;44037;55.638;37.356;2023-07-29T10:03:21;15.38;;;10.07;;
58238;SDS011;44037;55.638;37.356;2023-07-29T10:05:48;13.95;;;8.60;;
58238;SDS011;44037;55.638;37.356;2023-07-29T10:08:16;12.68;;;8.52;;
58238;SDS011;44037;55.638;37.356;2023-07-29T10:10:47;11.65;;;7.82;;
58238;SDS011;44037;55.638;37.356;2023-07-29T10:13:16;11.00;;;7.38;;
58238;SDS011;44037;55.638;37.356;2023-07-29T10:15:44;11.05;;;8.07;;
58238;SDS011;44037;55.638;37.356;2023-07-29T10:18:13;9.77;;;6.80;;
58238;SDS011;44037;55.638;37.356;2023-07-29T10:20:42;10.13;;;6.78;;
58238;SDS011;44037;55.638;37.356;2023-07-29T10:23:10;12.73;;;7.63;;
58238;SDS011;44037;55.638;37.356;2023-07-29T10:25:39;8.48;;;7.53;;
58238;SDS011;44037;55.638;37.356;2023-07-29T10:28:13;11.07;;;6.78;;
58238;SDS011;44037;55.638;37.356;2023-07-29T10:30:45;7.47;;;6.55;;
58238;SDS011;44037;55.638;37.356;2023-07-29T10:33:13;8.13;;;7.15;;
58238;SDS011;44037;55.638;37.356;2023-07-29T10:35:40;9.32;;;7.15;;
58238;SDS011;44037;55.638;37.356;2023-07-29T10:38:08;10.52;;;7.20;;
58238;SDS011;44037;55.638;37.356;2023-07-29T10:40:43;13.05;;;8.07;;
58238;SDS011;44037;55.638;37.356;2023-07-29T10:43:12;8.52;;;6.82;;
58238;SDS011;44037;55.638;37.356;2023-07-29T10:45:45;10.20;;;7.30;;
58238;SDS011;44037;55.638;37.356;2023-07-29T10:48:13;9.52;;;6.43;;
58238;SDS011;44037;55.638;37.356;2023-07-29T10:51:23;7.45;;;6.30;;
58238;SDS011;44037;55.638;37.356;2023-07-29T10:53:56;7.63;;;6.38;;
58238;SDS011;44037;55.638;37.356;2023-07-29T10:56:24;10.10;;;6.75;;
58238;SDS011;44037;55.638;37.356;2023-07-29T10:58:56;7.32;;;6.18;;
58238;SDS011;44037;55.638;37.356;2023-07-29T11:01:27;10.05;;;6.97;;
58238;SDS011;44037;55.638;37.356;2023-07-29T11:04:01;7.90;;;7.03;;
58238;SDS011;44037;55.638;37.356;2023-07-29T11:09:52;7.53;;;6.53;;
58238;SDS011;44037;55.638;37.356;2023-07-29T11:12:36;7.15;;;6.45;;
58238;SDS011;44037;55.638;37.356;2023-07-29T11:15:14;9.88;;;7.20;;
58238;SDS011;44037;55.638;37.356;2023-07-29T11:17:43;9.25;;;7.20;;
58238;SDS011;44037;55.638;37.356;2023-07-29T11:20:13;10.90;;;7.35;;
58238;SDS011;44037;55.638;37.356;2023-07-29T11:22:41;9.05;;;7.82;;
58238;SDS011;44037;55.638;37.356;2023-07-29T11:25:09;9.02;;;7.68;;
58238;SDS011;44037;55.638;37.356;2023-07-29T11:27:38;9.55;;;7.55;;
58238;SDS011;44037;55.638;37.356;2023-07-29T11:30:07;10.88;;;7.70;;
58238;SDS011;44037;55.638;37.356;2023-07-29T11:32:37;11.30;;;8.27;;
58238;SDS011;44037;55.638;37.356;2023-07-29T11:35:06;9.60;;;6.57;;
58238;SDS011;44037;55.638;37.356;2023-07-29T11:37:35;9.90;;;5.85;;
58238;SDS011;44037;55.638;37.356;2023-07-29T11:40:03;9.55;;;6.82;;
58238;SDS011;44037;55.638;37.356;2023-07-29T11:42:32;11.00;;;6.88;;
58238;SDS011;44037;55.638;37.356;2023-07-29T11:45:00;8.25;;;6.03;;
58238;SDS011;44037;55.638;37.356;2023-07-29T11:47:31;9.65;;;6.43;;
58238;SDS011;44037;55.638;37.356;2023-07-29T11:50:04;7.78;;;6.97;;
58238;SDS011;44037;55.638;37.356;2023-07-29T11:52:34;10.55;;;7.03;;
58238;SDS011;44037;55.638;37.356;2023-07-29T11:55:03;9.80;;;7.60;;
58238;SDS011;44037;55.638;37.356;2023-07-29T11:57:31;9.98;;;7.00;;
58238;SDS011;44037;55.638;37.356;2023-07-29T12:00:02;10.65;;;7.03;;
58238;SDS011;44037;55.638;37.356;2023-07-29T12:02:31;8.82;;;6.47;;
58238;SDS011;44037;55.638;37.356;2023-07-29T12:04:59;8.00;;;6.35;;
58238;SDS011;44037;55.638;37.356;2023-07-29T12:07:30;6.57;;;5.40;;
58238;SDS011;44037;55.638;37.356;2023-07-29T12:09:58;9.20;;;4.97;;
58238;SDS011;44037;55.638;37.356;2023-07-29T12:12:26;6.93;;;4.43;;
58238;SDS011;44037;55.638;37.356;2023-07-29T12:14:53;7.60;;;5.00;;
58238;SDS011;44037;55.638;37.356;2023-07-29T12:17:21;6.93;;;4.60;;
58238;SDS011;44037;55.638;37.356;2023-07-29T12:19:48;7.07;;;4.72;;
58238;SDS011;44037;55.638;37.356;2023-07-29T12:22:17;6.10;;;4.60;;
58238;SDS011;44037;55.638;37.356;2023-07-29T12:24:49;6.75;;;4.82;;
58238;SDS011;44037;55.638;37.356;2023-07-29T12:27:18;5.53;;;4.70;;
58238;SDS011;44037;55.638;37.356;2023-07-29T12:29:48;6.97;;;4.70;;
58238;SDS011;44037;55.638;37.356;2023-07-29T12:32:18;7.82;;;4.78;;
58238;SDS011;44037;55.638;37.356;2023-07-29T12:34:46;5.40;;;4.57;;
58238;SDS011;44037;55.638;37.356;2023-07-29T12:37:15;6.50;;;4.38;;
58238;SDS011;44037;55.638;37.356;2023-07-29T12:39:42;8.80;;;4.40;;
58238;SDS011;44037;55.638;37.356;2023-07-29T12:42:11;5.22;;;4.25;;
58238;SDS011;44037;55.638;37.356;2023-07-29T12:44:38;6.78;;;4.65;;
58238;SDS011;44037;55.638;37.356;2023-07-29T12:47:06;7.15;;;4.30;;
58238;SDS011;44037;55.638;37.356;2023-07-29T12:49:34;6.47;;;4.32;;
58238;SDS011;44037;55.638;37.356;2023-07-29T12:52:01;5.00;;;4.00;;
58238;SDS011;44037;55.638;37.356;2023-07-29T12:54:28;7.43;;;4.55;;
58238;SDS011;44037;55.638;37.356;2023-07-29T12:56:55;8.68;;;5.00;;
58238;SDS011;44037;55.638;37.356;2023-07-29T12:59:24;14.85;;;10.75;;
58238;SDS011;44037;55.638;37.356;2023-07-29T13:01:51;6.97;;;5.07;;
58238;SDS011;44037;55.638;37.356;2023-07-29T13:04:18;5.72;;;4.15;;
58238;SDS011;44037;55.638;37.356;2023-07-29T13:06:45;7.75;;;4.50;;
58238;SDS011;44037;55.638;37.356;2023-07-29T13:09:12;7.80;;;4.03;;
58238;SDS011;44037;55.638;37.356;2023-07-29T13:11:39;6.80;;;3.63;;
58238;SDS011;44037;55.638;37.356;2023-07-29T13:14:07;5.47;;;3.83;;
58238;SDS011;44037;55.638;37.356;2023-07-29T13:16:35;8.70;;;4.30;;
58238;SDS011;44037;55.638;37.356;2023-07-29T13:19:03;7.93;;;3.83;;
58238;SDS011;44037;55.638;37.356;2023-07-29T13:21:30;7.80;;;4.40;;
58238;SDS011;44037;55.638;37.356;2023-07-29T13:23:57;5.50;;;3.55;;
58238;SDS011;44037;55.638;37.356;2023-07-29T13:26:24;5.80;;;3.03;;
58238;SDS011;44037;55.638;37.356;2023-07-29T13:28:51;3.67;;;2.80;;
58238;SDS011;44037;55.638;37.356;2023-07-29T13:31:20;5.88;;;3.70;;
58238;SDS011;44037;55.638;37.356;2023-07-29T13:33:48;6.20;;;3.72;;
58238;SDS011;44037;55.638;37.356;2023-07-29T13:36:16;5.25;;;2.80;;
58238;SDS011;44037;55.638;37.356;2023-07-29T13:38:43;4.30;;;2.80;;
58238;SDS011;44037;55.638;37.356;2023-07-29T13:41:10;5.78;;;3.30;;
58238;SDS011;44037;55.638;37.356;2023-07-29T13:43:37;6.20;;;3.17;;
58238;SDS011;44037;55.638;37.356;2023-07-29T13:46:04;4.32;;;2.92;;
58238;SDS011;44037;55.638;37.356;2023-07-29T13:48:31;4.88;;;3.00;;
58238;SDS011;44037;55.638;37.356;2023-07-29T13:51:02;6.13;;;2.90;;
58238;SDS011;44037;55.638;37.356;2023-07-29T13:53:29;5.93;;;3.40;;
58238;SDS011;44037;55.638;37.356;2023-07-29T13:55:56;6.32;;;2.85;;
58238;SDS011;44037;55.638;37.356;2023-07-29T13:58:23;4.47;;;3.20;;
58238;SDS011;44037;55.638;37.356;2023-07-29T14:00:51;5.18;;;3.50;;
58238;SDS011;44037;55.638;37.356;2023-07-29T14:03:18;6.47;;;3.17;;
58238;SDS011;44037;55.638;37.356;2023-07-29T14:05:45;8.57;;;3.45;;
58238;SDS011;44037;55.638;37.356;2023-07-29T14:08:14;7.32;;;3.50;;
58238;SDS011;44037;55.638;37.356;2023-07-29T14:10:41;7.60;;;3.45;;
58238;SDS011;44037;55.638;37.356;2023-07-29T14:13:09;5.03;;;3.33;;
58238;SDS011;44037;55.638;37.356;2023-07-29T14:15:36;6.75;;;4.25;;
58238;SDS011;44037;55.638;37.356;2023-07-29T14:18:03;6.25;;;2.80;;
58238;SDS011;44037;55.638;37.356;2023-07-29T14:20:33;4.20;;;2.88;;
58238;SDS011;44037;55.638;37.356;2023-07-29T14:23:00;5.45;;;3.90;;
58238;SDS011;44037;55.638;37.356;2023-07-29T14:25:29;6.70;;;3.47;;
58238;SDS011;44037;55.638;37.356;2023-07-29T14:27:56;5.63;;;3.67;;
58238;SDS011;44037;55.638;37.356;2023-07-29T14:30:23;6.50;;;3.47;;
58238;SDS011;44037;55.638;37.356;2023-07-29T14:32:50;6.25;;;3.50;;